sensor_id;sensor_type;location;lat;lon;timestamp;P1;durP1;ratioP1;P2;durP2;ratioP2
67248;SDS011;63247;54.300;18.592;2024-02-23T00:01:26;35.53;;;14.95;;
67248;SDS011;63247;54.300;18.592;2024-02-23T00:03:51;33.78;;;13.90;;
67248;SDS011;63247;54.300;18.592;2024-02-23T00:06:17;31.50;;;14.17;;
67248;SDS011;63247;54.300;18.592;2024-02-23T00:08:43;31.38;;;12.95;;
67248;SDS011;63247;54.300;18.592;2024-02-23T00:11:08;31.73;;;13.83;;
67248;SDS011;63247;54.300;18.592;2024-02-23T00:13:34;31.50;;;13.53;;
67248;SDS011;63247;54.300;18.592;2024-02-23T00:15:59;30.52;;;14.80;;
67248;SDS011;63247;54.300;18.592;2024-02-23T00:18:25;30.73;;;14.07;;
67248;SDS011;63247;54.300;18.592;2024-02-23T00:20:50;26.43;;;11.80;;
67248;SDS011;63247;54.300;18.592;2024-02-23T00:23:16;29.40;;;13.60;;
67248;SDS011;63247;54.300;18.592;2024-02-23T00:25:41;28.70;;;13.90;;
67248;SDS011;63247;54.300;18.592;2024-02-23T00:28:07;30.13;;;14.20;;
67248;SDS011;63247;54.300;18.592;2024-02-23T00:30:33;36.47;;;13.27;;
67248;SDS011;63247;54.300;18.592;2024-02-23T00:32:58;30.13;;;13.07;;
67248;SDS011;63247;54.300;18.592;2024-02-23T00:35:24;25.47;;;11.00;;
67248;SDS011;63247;54.300;18.592;2024-02-23T00:37:49;28.80;;;13.20;;
67248;SDS011;63247;54.300;18.592;2024-02-23T00:40:14;31.70;;;14.43;;
67248;SDS011;63247;54.300;18.592;2024-02-23T00:42:40;28.87;;;13.47;;
67248;SDS011;63247;54.300;18.592;2024-02-23T00:45:06;27.02;;;12.52;;
67248;SDS011;63247;54.300;18.592;2024-02-23T00:47:32;33.95;;;13.65;;
67248;SDS011;63247;54.300;18.592;2024-02-23T00:49:58;29.88;;;13.32;;
67248;SDS011;63247;54.300;18.592;2024-02-23T00:52:23;27.73;;;12.83;;
67248;SDS011;63247;54.300;18.592;2024-02-23T00:54:49;32.40;;;14.98;;
67248;SDS011;63247;54.300;18.592;2024-02-23T00:57:14;30.20;;;13.50;;
67248;SDS011;63247;54.300;18.592;2024-02-23T00:59:40;29.85;;;14.38;;
67248;SDS011;63247;54.300;18.592;2024-02-23T01:02:06;24.77;;;12.63;;
67248;SDS011;63247;54.300;18.592;2024-02-23T01:04:32;34.55;;;19.00;;
67248;SDS011;63247;54.300;18.592;2024-02-23T01:06:57;24.83;;;12.15;;
67248;SDS011;63247;54.300;18.592;2024-02-23T01:09:23;31.17;;;14.40;;
67248;SDS011;63247;54.300;18.592;2024-02-23T01:11:49;27.48;;;13.52;;
67248;SDS011;63247;54.300;18.592;2024-02-23T01:14:14;25.93;;;11.97;;
67248;SDS011;63247;54.300;18.592;2024-02-23T01:16:40;26.45;;;13.18;;
67248;SDS011;63247;54.300;18.592;2024-02-23T01:19:06;27.87;;;13.97;;
67248;SDS011;63247;54.300;18.592;2024-02-23T01:21:31;30.73;;;12.93;;
67248;SDS011;63247;54.300;18.592;2024-02-23T01:23:56;25.60;;;11.70;;
67248;SDS011;63247;54.300;18.592;2024-02-23T01:26:22;27.08;;;12.50;;
67248;SDS011;63247;54.300;18.592;2024-02-23T01:28:48;30.77;;;13.60;;
67248;SDS011;63247;54.300;18.592;2024-02-23T01:31:14;28.85;;;12.82;;
67248;SDS011;63247;54.300;18.592;2024-02-23T01:33:39;28.13;;;12.30;;
67248;SDS011;63247;54.300;18.592;2024-02-23T01:36:05;24.73;;;11.90;;
67248;SDS011;63247;54.300;18.592;2024-02-23T01:38:31;30.02;;;13.93;;
67248;SDS011;63247;54.300;18.592;2024-02-23T01:40:58;29.90;;;13.15;;
67248;SDS011;63247;54.300;18.592;2024-02-23T01:43:24;27.38;;;13.82;;
67248;SDS011;63247;54.300;18.592;2024-02-23T01:45:49;27.93;;;12.83;;
67248;SDS011;63247;54.300;18.592;2024-02-23T01:48:15;31.97;;;14.93;;
67248;SDS011;63247;54.300;18.592;2024-02-23T01:50:41;33.67;;;14.55;;
67248;SDS011;63247;54.300;18.592;2024-02-23T01:53:07;29.20;;;13.88;;
67248;SDS011;63247;54.300;18.592;2024-02-23T01:55:34;40.37;;;15.30;;
67248;SDS011;63247;54.300;18.592;2024-02-23T01:58:00;35.20;;;15.07;;
67248;SDS011;63247;54.300;18.592;2024-02-23T02:00:26;36.53;;;16.00;;
67248;SDS011;63247;54.300;18.592;2024-02-23T02:02:52;33.83;;;14.85;;
67248;SDS011;63247;54.300;18.592;2024-02-23T02:05:17;33.83;;;15.75;;
67248;SDS011;63247;54.300;18.592;2024-02-23T02:07:43;32.57;;;14.73;;
67248;SDS011;63247;54.300;18.592;2024-02-23T02:10:12;32.10;;;14.80;;
67248;SDS011;63247;54.300;18.592;2024-02-23T02:12:37;32.17;;;15.40;;
67248;SDS011;63247;54.300;18.592;2024-02-23T02:15:03;31.65;;;14.48;;
67248;SDS011;63247;54.300;18.592;2024-02-23T02:17:30;30.13;;;14.17;;
67248;SDS011;63247;54.300;18.592;2024-02-23T02:19:56;36.42;;;14.55;;
67248;SDS011;63247;54.300;18.592;2024-02-23T02:22:24;30.15;;;14.05;;
67248;SDS011;63247;54.300;18.592;2024-02-23T02:24:49;32.67;;;14.70;;
67248;SDS011;63247;54.300;18.592;2024-02-23T02:27:15;33.87;;;14.37;;
67248;SDS011;63247;54.300;18.592;2024-02-23T02:29:40;32.85;;;15.30;;
67248;SDS011;63247;54.300;18.592;2024-02-23T02:32:06;36.20;;;15.52;;
67248;SDS011;63247;54.300;18.592;2024-02-23T02:34:32;33.70;;;15.83;;
67248;SDS011;63247;54.300;18.592;2024-02-23T02:36:57;29.05;;;12.57;;
67248;SDS011;63247;54.300;18.592;2024-02-23T02:39:23;34.07;;;15.67;;
67248;SDS011;63247;54.300;18.592;2024-02-23T02:41:48;34.83;;;17.67;;
67248;SDS011;63247;54.300;18.592;2024-02-23T02:44:14;33.13;;;17.73;;
67248;SDS011;63247;54.300;18.592;2024-02-23T02:46:40;35.38;;;16.08;;
67248;SDS011;63247;54.300;18.592;2024-02-23T02:49:06;38.08;;;16.77;;
67248;SDS011;63247;54.300;18.592;2024-02-23T02:51:31;36.23;;;15.80;;
67248;SDS011;63247;54.300;18.592;2024-02-23T02:53:56;38.03;;;17.23;;
67248;SDS011;63247;54.300;18.592;2024-02-23T02:56:22;41.08;;;17.05;;
67248;SDS011;63247;54.300;18.592;2024-02-23T02:58:47;38.13;;;16.60;;
67248;SDS011;63247;54.300;18.592;2024-02-23T03:01:13;39.27;;;17.23;;
67248;SDS011;63247;54.300;18.592;2024-02-23T03:03:38;44.30;;;18.03;;
67248;SDS011;63247;54.300;18.592;2024-02-23T03:06:04;42.80;;;15.63;;
67248;SDS011;63247;54.300;18.592;2024-02-23T03:08:30;37.75;;;16.08;;
67248;SDS011;63247;54.300;18.592;2024-02-23T03:10:56;39.13;;;17.20;;
67248;SDS011;63247;54.300;18.592;2024-02-23T03:13:22;33.70;;;15.07;;
67248;SDS011;63247;54.300;18.592;2024-02-23T03:15:47;35.47;;;16.20;;
67248;SDS011;63247;54.300;18.592;2024-02-23T03:18:13;36.40;;;16.60;;
67248;SDS011;63247;54.300;18.592;2024-02-23T03:20:40;33.70;;;15.35;;
67248;SDS011;63247;54.300;18.592;2024-02-23T03:23:06;39.22;;;17.70;;
67248;SDS011;63247;54.300;18.592;2024-02-23T03:25:32;36.97;;;16.97;;
67248;SDS011;63247;54.300;18.592;2024-02-23T03:27:57;35.97;;;16.47;;
67248;SDS011;63247;54.300;18.592;2024-02-23T03:30:23;32.13;;;14.90;;
67248;SDS011;63247;54.300;18.592;2024-02-23T03:32:48;38.10;;;16.65;;
67248;SDS011;63247;54.300;18.592;2024-02-23T03:35:13;38.30;;;17.53;;
67248;SDS011;63247;54.300;18.592;2024-02-23T03:37:39;39.37;;;17.63;;
67248;SDS011;63247;54.300;18.592;2024-02-23T03:40:05;35.80;;;17.57;;
67248;SDS011;63247;54.300;18.592;2024-02-23T03:42:31;35.90;;;15.57;;
67248;SDS011;63247;54.300;18.592;2024-02-23T03:44:56;35.97;;;16.30;;
67248;SDS011;63247;54.300;18.592;2024-02-23T03:47:22;39.37;;;18.83;;
67248;SDS011;63247;54.300;18.592;2024-02-23T03:49:47;32.85;;;15.98;;
67248;SDS011;63247;54.300;18.592;2024-02-23T03:52:13;38.53;;;16.43;;
67248;SDS011;63247;54.300;18.592;2024-02-23T03:54:38;34.87;;;18.03;;
67248;SDS011;63247;54.300;18.592;2024-02-23T03:57:04;41.88;;;19.27;;
67248;SDS011;63247;54.300;18.592;2024-02-23T03:59:29;34.78;;;15.63;;
67248;SDS011;63247;54.300;18.592;2024-02-23T04:01:55;34.53;;;16.23;;
67248;SDS011;63247;54.300;18.592;2024-02-23T04:04:21;30.95;;;13.23;;
67248;SDS011;63247;54.300;18.592;2024-02-23T04:06:46;40.03;;;19.13;;
67248;SDS011;63247;54.300;18.592;2024-02-23T04:09:12;35.42;;;16.00;;
67248;SDS011;63247;54.300;18.592;2024-02-23T04:11:37;41.67;;;19.90;;
67248;SDS011;63247;54.300;18.592;2024-02-23T04:14:03;34.97;;;16.50;;
67248;SDS011;63247;54.300;18.592;2024-02-23T04:16:30;40.35;;;19.13;;
67248;SDS011;63247;54.300;18.592;2024-02-23T04:18:56;33.58;;;14.43;;
67248;SDS011;63247;54.300;18.592;2024-02-23T04:21:21;35.83;;;16.47;;
67248;SDS011;63247;54.300;18.592;2024-02-23T04:23:47;37.07;;;17.47;;
67248;SDS011;63247;54.300;18.592;2024-02-23T04:26:13;36.28;;;16.95;;
67248;SDS011;63247;54.300;18.592;2024-02-23T04:28:39;34.53;;;15.40;;
67248;SDS011;63247;54.300;18.592;2024-02-23T04:31:05;37.08;;;17.80;;
67248;SDS011;63247;54.300;18.592;2024-02-23T04:33:30;37.70;;;16.10;;
67248;SDS011;63247;54.300;18.592;2024-02-23T04:35:56;32.45;;;16.73;;
67248;SDS011;63247;54.300;18.592;2024-02-23T04:38:22;44.70;;;18.93;;
67248;SDS011;63247;54.300;18.592;2024-02-23T04:40:47;38.65;;;17.20;;
67248;SDS011;63247;54.300;18.592;2024-02-23T04:43:13;41.23;;;19.03;;
67248;SDS011;63247;54.300;18.592;2024-02-23T04:45:38;38.23;;;18.70;;
67248;SDS011;63247;54.300;18.592;2024-02-23T04:48:04;41.53;;;18.20;;
67248;SDS011;63247;54.300;18.592;2024-02-23T04:50:29;39.35;;;19.35;;
67248;SDS011;63247;54.300;18.592;2024-02-23T04:52:55;37.40;;;17.43;;
67248;SDS011;63247;54.300;18.592;2024-02-23T04:55:20;39.90;;;18.57;;
67248;SDS011;63247;54.300;18.592;2024-02-23T04:57:45;33.77;;;16.40;;
67248;SDS011;63247;54.300;18.592;2024-02-23T05:00:11;38.45;;;18.23;;
67248;SDS011;63247;54.300;18.592;2024-02-23T05:02:37;35.03;;;17.97;;
67248;SDS011;63247;54.300;18.592;2024-02-23T05:05:03;36.67;;;16.67;;
67248;SDS011;63247;54.300;18.592;2024-02-23T05:07:32;33.63;;;16.90;;
67248;SDS011;63247;54.300;18.592;2024-02-23T05:09:58;29.27;;;14.20;;
67248;SDS011;63247;54.300;18.592;2024-02-23T05:12:23;30.93;;;15.50;;
67248;SDS011;63247;54.300;18.592;2024-02-23T05:14:49;32.25;;;15.77;;
67248;SDS011;63247;54.300;18.592;2024-02-23T05:17:14;31.10;;;15.82;;
67248;SDS011;63247;54.300;18.592;2024-02-23T05:19:40;29.67;;;14.07;;
67248;SDS011;63247;54.300;18.592;2024-02-23T05:22:05;27.93;;;14.03;;
67248;SDS011;63247;54.300;18.592;2024-02-23T05:24:30;29.17;;;14.57;;
67248;SDS011;63247;54.300;18.592;2024-02-23T05:26:56;28.13;;;13.57;;
67248;SDS011;63247;54.300;18.592;2024-02-23T05:29:23;26.65;;;14.07;;
67248;SDS011;63247;54.300;18.592;2024-02-23T05:31:52;26.98;;;13.52;;
67248;SDS011;63247;54.300;18.592;2024-02-23T05:34:17;24.10;;;12.52;;
67248;SDS011;63247;54.300;18.592;2024-02-23T05:36:44;26.80;;;13.63;;
67248;SDS011;63247;54.300;18.592;2024-02-23T05:39:11;25.27;;;12.83;;
67248;SDS011;63247;54.300;18.592;2024-02-23T05:41:37;25.70;;;12.23;;
67248;SDS011;63247;54.300;18.592;2024-02-23T05:44:04;25.27;;;13.80;;
67248;SDS011;63247;54.300;18.592;2024-02-23T05:46:34;23.00;;;11.52;;
67248;SDS011;63247;54.300;18.592;2024-02-23T05:49:00;24.15;;;12.77;;
67248;SDS011;63247;54.300;18.592;2024-02-23T05:51:28;24.17;;;12.03;;
67248;SDS011;63247;54.300;18.592;2024-02-23T05:53:54;24.55;;;12.77;;
67248;SDS011;63247;54.300;18.592;2024-02-23T05:56:20;20.40;;;11.68;;
67248;SDS011;63247;54.300;18.592;2024-02-23T05:58:45;22.13;;;10.77;;
67248;SDS011;63247;54.300;18.592;2024-02-23T06:01:11;22.87;;;11.97;;
67248;SDS011;63247;54.300;18.592;2024-02-23T06:03:36;21.42;;;11.10;;
67248;SDS011;63247;54.300;18.592;2024-02-23T06:06:01;21.87;;;11.20;;
67248;SDS011;63247;54.300;18.592;2024-02-23T06:08:27;21.87;;;10.77;;
67248;SDS011;63247;54.300;18.592;2024-02-23T06:10:52;21.17;;;9.97;;
67248;SDS011;63247;54.300;18.592;2024-02-23T06:13:18;18.20;;;10.13;;
67248;SDS011;63247;54.300;18.592;2024-02-23T06:15:43;17.08;;;9.30;;
67248;SDS011;63247;54.300;18.592;2024-02-23T06:18:08;18.57;;;10.93;;
67248;SDS011;63247;54.300;18.592;2024-02-23T06:20:34;18.73;;;10.00;;
67248;SDS011;63247;54.300;18.592;2024-02-23T06:22:59;18.50;;;9.57;;
67248;SDS011;63247;54.300;18.592;2024-02-23T06:25:25;17.77;;;9.93;;
67248;SDS011;63247;54.300;18.592;2024-02-23T06:27:50;18.40;;;9.70;;
67248;SDS011;63247;54.300;18.592;2024-02-23T06:30:16;18.90;;;9.10;;
67248;SDS011;63247;54.300;18.592;2024-02-23T06:32:41;17.77;;;9.33;;
67248;SDS011;63247;54.300;18.592;2024-02-23T06:35:07;16.73;;;8.98;;
67248;SDS011;63247;54.300;18.592;2024-02-23T06:37:33;19.15;;;8.55;;
67248;SDS011;63247;54.300;18.592;2024-02-23T06:39:59;16.80;;;9.20;;
67248;SDS011;63247;54.300;18.592;2024-02-23T06:42:25;17.00;;;9.03;;
67248;SDS011;63247;54.300;18.592;2024-02-23T06:44:50;17.67;;;9.02;;
67248;SDS011;63247;54.300;18.592;2024-02-23T06:47:16;15.93;;;8.60;;
67248;SDS011;63247;54.300;18.592;2024-02-23T06:49:41;19.13;;;9.13;;
67248;SDS011;63247;54.300;18.592;2024-02-23T06:52:10;16.77;;;8.90;;
67248;SDS011;63247;54.300;18.592;2024-02-23T06:54:36;18.02;;;8.20;;
67248;SDS011;63247;54.300;18.592;2024-02-23T06:57:01;16.43;;;8.50;;
67248;SDS011;63247;54.300;18.592;2024-02-23T06:59:28;15.98;;;7.82;;
67248;SDS011;63247;54.300;18.592;2024-02-23T07:01:54;14.57;;;7.77;;
67248;SDS011;63247;54.300;18.592;2024-02-23T07:04:20;14.40;;;7.78;;
67248;SDS011;63247;54.300;18.592;2024-02-23T07:06:45;12.77;;;5.83;;
67248;SDS011;63247;54.300;18.592;2024-02-23T07:09:11;18.23;;;6.70;;
67248;SDS011;63247;54.300;18.592;2024-02-23T07:11:37;11.85;;;5.68;;
67248;SDS011;63247;54.300;18.592;2024-02-23T07:14:04;10.23;;;5.45;;
67248;SDS011;63247;54.300;18.592;2024-02-23T07:16:32;9.83;;;5.50;;
67248;SDS011;63247;54.300;18.592;2024-02-23T07:18:57;9.40;;;4.55;;
67248;SDS011;63247;54.300;18.592;2024-02-23T07:21:23;10.27;;;5.00;;
67248;SDS011;63247;54.300;18.592;2024-02-23T07:23:48;8.63;;;4.38;;
67248;SDS011;63247;54.300;18.592;2024-02-23T07:26:14;7.93;;;4.10;;
67248;SDS011;63247;54.300;18.592;2024-02-23T07:28:39;8.03;;;3.83;;
67248;SDS011;63247;54.300;18.592;2024-02-23T07:31:05;9.93;;;4.10;;
67248;SDS011;63247;54.300;18.592;2024-02-23T07:33:30;8.53;;;3.93;;
67248;SDS011;63247;54.300;18.592;2024-02-23T07:35:56;8.50;;;4.07;;
67248;SDS011;63247;54.300;18.592;2024-02-23T07:38:21;9.07;;;4.00;;
67248;SDS011;63247;54.300;18.592;2024-02-23T07:40:47;7.97;;;3.70;;
67248;SDS011;63247;54.300;18.592;2024-02-23T07:43:12;7.93;;;3.80;;
67248;SDS011;63247;54.300;18.592;2024-02-23T07:45:38;7.25;;;3.75;;
67248;SDS011;63247;54.300;18.592;2024-02-23T07:48:03;10.63;;;4.20;;
67248;SDS011;63247;54.300;18.592;2024-02-23T07:50:29;7.65;;;3.45;;
67248;SDS011;63247;54.300;18.592;2024-02-23T07:52:55;7.83;;;3.30;;
67248;SDS011;63247;54.300;18.592;2024-02-23T07:55:20;7.23;;;3.30;;
67248;SDS011;63247;54.300;18.592;2024-02-23T07:57:47;7.22;;;3.38;;
67248;SDS011;63247;54.300;18.592;2024-02-23T08:00:12;6.20;;;3.10;;
67248;SDS011;63247;54.300;18.592;2024-02-23T08:02:39;9.20;;;3.17;;
67248;SDS011;63247;54.300;18.592;2024-02-23T08:05:04;6.28;;;2.65;;
67248;SDS011;63247;54.300;18.592;2024-02-23T08:07:31;6.65;;;2.83;;
67248;SDS011;63247;54.300;18.592;2024-02-23T08:09:57;8.23;;;3.93;;
67248;SDS011;63247;54.300;18.592;2024-02-23T08:12:22;7.00;;;3.30;;
67248;SDS011;63247;54.300;18.592;2024-02-23T08:14:48;5.50;;;2.35;;
67248;SDS011;63247;54.300;18.592;2024-02-23T08:17:15;4.82;;;2.30;;
67248;SDS011;63247;54.300;18.592;2024-02-23T08:19:41;5.83;;;2.00;;
67248;SDS011;63247;54.300;18.592;2024-02-23T08:22:06;5.00;;;2.07;;
67248;SDS011;63247;54.300;18.592;2024-02-23T08:24:31;5.60;;;1.90;;
67248;SDS011;63247;54.300;18.592;2024-02-23T08:26:57;5.60;;;1.63;;
67248;SDS011;63247;54.300;18.592;2024-02-23T08:29:22;4.93;;;1.53;;
67248;SDS011;63247;54.300;18.592;2024-02-23T08:31:48;3.03;;;1.40;;
67248;SDS011;63247;54.300;18.592;2024-02-23T08:34:14;4.00;;;1.40;;
67248;SDS011;63247;54.300;18.592;2024-02-23T08:36:39;5.63;;;1.53;;
67248;SDS011;63247;54.300;18.592;2024-02-23T08:39:05;3.40;;;1.40;;
67248;SDS011;63247;54.300;18.592;2024-02-23T08:41:30;2.92;;;1.02;;
67248;SDS011;63247;54.300;18.592;2024-02-23T08:43:56;4.00;;;1.10;;
67248;SDS011;63247;54.300;18.592;2024-02-23T08:46:21;5.10;;;1.80;;
67248;SDS011;63247;54.300;18.592;2024-02-23T08:48:47;6.55;;;1.83;;
67248;SDS011;63247;54.300;18.592;2024-02-23T08:51:13;5.70;;;1.33;;
67248;SDS011;63247;54.300;18.592;2024-02-23T08:53:38;4.63;;;1.20;;
67248;SDS011;63247;54.300;18.592;2024-02-23T08:56:05;4.73;;;1.00;;
67248;SDS011;63247;54.300;18.592;2024-02-23T08:58:31;4.10;;;0.90;;
67248;SDS011;63247;54.300;18.592;2024-02-23T09:00:57;3.83;;;1.07;;
67248;SDS011;63247;54.300;18.592;2024-02-23T09:03:23;3.25;;;1.10;;
67248;SDS011;63247;54.300;18.592;2024-02-23T09:05:49;3.27;;;1.00;;
67248;SDS011;63247;54.300;18.592;2024-02-23T09:08:15;3.85;;;1.00;;
67248;SDS011;63247;54.300;18.592;2024-02-23T09:10:41;3.70;;;0.90;;
67248;SDS011;63247;54.300;18.592;2024-02-23T09:13:06;4.03;;;1.00;;
67248;SDS011;63247;54.300;18.592;2024-02-23T09:15:32;4.00;;;0.90;;
67248;SDS011;63247;54.300;18.592;2024-02-23T09:17:57;2.77;;;0.90;;
67248;SDS011;63247;54.300;18.592;2024-02-23T09:20:23;4.45;;;1.20;;
67248;SDS011;63247;54.300;18.592;2024-02-23T09:22:48;2.60;;;0.80;;
67248;SDS011;63247;54.300;18.592;2024-02-23T09:25:14;4.27;;;0.80;;
67248;SDS011;63247;54.300;18.592;2024-02-23T09:27:39;5.38;;;0.80;;
67248;SDS011;63247;54.300;18.592;2024-02-23T09:30:09;3.92;;;0.80;;
67248;SDS011;63247;54.300;18.592;2024-02-23T09:32:38;4.00;;;0.80;;
67248;SDS011;63247;54.300;18.592;2024-02-23T09:35:04;3.78;;;0.90;;
67248;SDS011;63247;54.300;18.592;2024-02-23T09:37:31;3.10;;;0.80;;
67248;SDS011;63247;54.300;18.592;2024-02-23T09:39:56;4.75;;;1.10;;
67248;SDS011;63247;54.300;18.592;2024-02-23T09:42:22;2.30;;;0.50;;
67248;SDS011;63247;54.300;18.592;2024-02-23T09:45:10;3.20;;;0.70;;
67248;SDS011;63247;54.300;18.592;2024-02-23T09:47:36;2.43;;;0.80;;
67248;SDS011;63247;54.300;18.592;2024-02-23T09:50:03;4.05;;;0.60;;
67248;SDS011;63247;54.300;18.592;2024-02-23T09:52:29;2.77;;;0.57;;
67248;SDS011;63247;54.300;18.592;2024-02-23T09:54:55;2.92;;;0.57;;
67248;SDS011;63247;54.300;18.592;2024-02-23T09:57:20;2.40;;;0.50;;
67248;SDS011;63247;54.300;18.592;2024-02-23T09:59:47;3.10;;;0.57;;
67248;SDS011;63247;54.300;18.592;2024-02-23T10:02:14;2.95;;;0.50;;
67248;SDS011;63247;54.300;18.592;2024-02-23T10:04:42;3.20;;;0.60;;
67248;SDS011;63247;54.300;18.592;2024-02-23T10:07:14;3.65;;;0.77;;
67248;SDS011;63247;54.300;18.592;2024-02-23T10:09:41;2.90;;;0.55;;
67248;SDS011;63247;54.300;18.592;2024-02-23T10:12:06;4.77;;;0.50;;
67248;SDS011;63247;54.300;18.592;2024-02-23T10:14:32;2.97;;;0.60;;
67248;SDS011;63247;54.300;18.592;2024-02-23T10:16:58;3.13;;;0.60;;
67248;SDS011;63247;54.300;18.592;2024-02-23T10:19:24;2.50;;;0.60;;
67248;SDS011;63247;54.300;18.592;2024-02-23T10:21:54;4.40;;;0.60;;
67248;SDS011;63247;54.300;18.592;2024-02-23T10:24:19;2.22;;;0.55;;
67248;SDS011;63247;54.300;18.592;2024-02-23T10:26:45;4.30;;;0.60;;
67248;SDS011;63247;54.300;18.592;2024-02-23T10:29:10;3.93;;;0.60;;
67248;SDS011;63247;54.300;18.592;2024-02-23T10:31:36;3.07;;;0.60;;
67248;SDS011;63247;54.300;18.592;2024-02-23T10:34:07;2.28;;;0.50;;
67248;SDS011;63247;54.300;18.592;2024-02-23T10:36:42;3.58;;;0.65;;
67248;SDS011;63247;54.300;18.592;2024-02-23T10:39:09;3.35;;;0.65;;
67248;SDS011;63247;54.300;18.592;2024-02-23T10:41:36;3.03;;;0.60;;
67248;SDS011;63247;54.300;18.592;2024-02-23T10:44:04;3.20;;;0.60;;
67248;SDS011;63247;54.300;18.592;2024-02-23T10:46:31;2.17;;;0.57;;
67248;SDS011;63247;54.300;18.592;2024-02-23T10:48:58;2.20;;;0.50;;
67248;SDS011;63247;54.300;18.592;2024-02-23T10:51:24;2.60;;;0.50;;
67248;SDS011;63247;54.300;18.592;2024-02-23T10:53:50;3.43;;;0.60;;
67248;SDS011;63247;54.300;18.592;2024-02-23T10:56:18;3.83;;;0.70;;
67248;SDS011;63247;54.300;18.592;2024-02-23T10:58:44;4.00;;;0.77;;
67248;SDS011;63247;54.300;18.592;2024-02-23T11:01:10;2.90;;;0.63;;
67248;SDS011;63247;54.300;18.592;2024-02-23T11:03:37;2.13;;;0.55;;
67248;SDS011;63247;54.300;18.592;2024-02-23T11:06:06;2.53;;;0.80;;
67248;SDS011;63247;54.300;18.592;2024-02-23T11:08:32;2.53;;;0.70;;
67248;SDS011;63247;54.300;18.592;2024-02-23T11:11:06;3.95;;;0.60;;
67248;SDS011;63247;54.300;18.592;2024-02-23T11:13:36;2.67;;;0.90;;
67248;SDS011;63247;54.300;18.592;2024-02-23T11:16:06;5.90;;;0.90;;
67248;SDS011;63247;54.300;18.592;2024-02-23T11:18:36;3.03;;;1.00;;
67248;SDS011;63247;54.300;18.592;2024-02-23T11:21:03;3.33;;;0.90;;
67248;SDS011;63247;54.300;18.592;2024-02-23T11:23:47;2.65;;;0.80;;
67248;SDS011;63247;54.300;18.592;2024-02-23T11:26:15;2.70;;;0.70;;
67248;SDS011;63247;54.300;18.592;2024-02-23T11:28:47;3.45;;;0.70;;
67248;SDS011;63247;54.300;18.592;2024-02-23T11:31:22;2.50;;;0.73;;
67248;SDS011;63247;54.300;18.592;2024-02-23T11:33:52;3.97;;;0.93;;
67248;SDS011;63247;54.300;18.592;2024-02-23T11:36:22;3.28;;;0.90;;
67248;SDS011;63247;54.300;18.592;2024-02-23T11:38:55;2.40;;;0.70;;
67248;SDS011;63247;54.300;18.592;2024-02-23T11:41:23;4.95;;;0.90;;
67248;SDS011;63247;54.300;18.592;2024-02-23T11:43:49;5.82;;;1.20;;
67248;SDS011;63247;54.300;18.592;2024-02-23T11:46:16;5.70;;;0.80;;
67248;SDS011;63247;54.300;18.592;2024-02-23T11:48:42;2.95;;;1.05;;
67248;SDS011;63247;54.300;18.592;2024-02-23T11:51:08;3.80;;;0.80;;
67248;SDS011;63247;54.300;18.592;2024-02-23T11:53:34;3.50;;;0.90;;
67248;SDS011;63247;54.300;18.592;2024-02-23T11:56:01;2.60;;;0.88;;
67248;SDS011;63247;54.300;18.592;2024-02-23T11:58:27;4.87;;;1.10;;
67248;SDS011;63247;54.300;18.592;2024-02-23T12:00:52;3.37;;;0.80;;
67248;SDS011;63247;54.300;18.592;2024-02-23T12:03:18;2.90;;;0.90;;
67248;SDS011;63247;54.300;18.592;2024-02-23T12:05:43;4.10;;;1.20;;
67248;SDS011;63247;54.300;18.592;2024-02-23T12:08:09;4.10;;;0.90;;
67248;SDS011;63247;54.300;18.592;2024-02-23T12:10:34;3.43;;;1.10;;
67248;SDS011;63247;54.300;18.592;2024-02-23T12:13:01;6.22;;;1.02;;
67248;SDS011;63247;54.300;18.592;2024-02-23T12:15:28;4.07;;;1.05;;
67248;SDS011;63247;54.300;18.592;2024-02-23T12:17:53;3.77;;;0.80;;
67248;SDS011;63247;54.300;18.592;2024-02-23T12:20:22;3.40;;;0.90;;
67248;SDS011;63247;54.300;18.592;2024-02-23T12:22:48;2.23;;;0.77;;
67248;SDS011;63247;54.300;18.592;2024-02-23T12:25:13;4.63;;;1.55;;
67248;SDS011;63247;54.300;18.592;2024-02-23T12:27:40;5.23;;;1.17;;
67248;SDS011;63247;54.300;18.592;2024-02-23T12:30:06;3.55;;;0.88;;
67248;SDS011;63247;54.300;18.592;2024-02-23T12:32:38;2.65;;;0.85;;
67248;SDS011;63247;54.300;18.592;2024-02-23T12:35:03;3.30;;;0.77;;
67248;SDS011;63247;54.300;18.592;2024-02-23T12:37:34;4.10;;;1.73;;
67248;SDS011;63247;54.300;18.592;2024-02-23T12:40:00;3.45;;;1.30;;
67248;SDS011;63247;54.300;18.592;2024-02-23T12:42:25;3.00;;;1.10;;
67248;SDS011;63247;54.300;18.592;2024-02-23T12:44:51;2.87;;;1.10;;
67248;SDS011;63247;54.300;18.592;2024-02-23T12:47:16;3.23;;;1.00;;
67248;SDS011;63247;54.300;18.592;2024-02-23T12:49:43;2.65;;;0.90;;
67248;SDS011;63247;54.300;18.592;2024-02-23T12:52:08;4.77;;;1.00;;
67248;SDS011;63247;54.300;18.592;2024-02-23T12:54:34;4.57;;;1.20;;
67248;SDS011;63247;54.300;18.592;2024-02-23T12:56:59;3.03;;;0.85;;
67248;SDS011;63247;54.300;18.592;2024-02-23T12:59:25;5.73;;;1.20;;
67248;SDS011;63247;54.300;18.592;2024-02-23T13:01:50;3.87;;;0.90;;
67248;SDS011;63247;54.300;18.592;2024-02-23T13:04:16;6.03;;;2.40;;
67248;SDS011;63247;54.300;18.592;2024-02-23T13:06:41;6.45;;;2.40;;
67248;SDS011;63247;54.300;18.592;2024-02-23T13:09:07;4.37;;;1.40;;
67248;SDS011;63247;54.300;18.592;2024-02-23T13:11:34;4.68;;;1.10;;
67248;SDS011;63247;54.300;18.592;2024-02-23T13:14:00;3.78;;;1.10;;
67248;SDS011;63247;54.300;18.592;2024-02-23T13:16:26;4.50;;;1.00;;
67248;SDS011;63247;54.300;18.592;2024-02-23T13:18:53;3.78;;;1.17;;
67248;SDS011;63247;54.300;18.592;2024-02-23T13:21:18;5.80;;;1.10;;
67248;SDS011;63247;54.300;18.592;2024-02-23T13:23:44;3.80;;;1.40;;
67248;SDS011;63247;54.300;18.592;2024-02-23T13:26:09;4.82;;;1.70;;
67248;SDS011;63247;54.300;18.592;2024-02-23T13:28:36;5.13;;;1.03;;
67248;SDS011;63247;54.300;18.592;2024-02-23T13:31:02;2.42;;;1.00;;
67248;SDS011;63247;54.300;18.592;2024-02-23T13:33:28;4.18;;;1.42;;
67248;SDS011;63247;54.300;18.592;2024-02-23T13:35:53;5.85;;;1.80;;
67248;SDS011;63247;54.300;18.592;2024-02-23T13:38:20;5.18;;;1.80;;
67248;SDS011;63247;54.300;18.592;2024-02-23T13:40:45;4.85;;;1.30;;
67248;SDS011;63247;54.300;18.592;2024-02-23T13:43:11;6.03;;;2.57;;
67248;SDS011;63247;54.300;18.592;2024-02-23T13:45:47;4.63;;;2.00;;
67248;SDS011;63247;54.300;18.592;2024-02-23T13:48:15;4.80;;;1.50;;
67248;SDS011;63247;54.300;18.592;2024-02-23T13:50:41;6.18;;;1.70;;
67248;SDS011;63247;54.300;18.592;2024-02-23T13:53:07;4.97;;;2.03;;
67248;SDS011;63247;54.300;18.592;2024-02-23T13:55:32;6.37;;;2.60;;
67248;SDS011;63247;54.300;18.592;2024-02-23T13:57:57;4.27;;;1.80;;
67248;SDS011;63247;54.300;18.592;2024-02-23T14:00:23;2.85;;;1.05;;
67248;SDS011;63247;54.300;18.592;2024-02-23T14:02:48;5.50;;;1.60;;
67248;SDS011;63247;54.300;18.592;2024-02-23T14:05:14;4.87;;;1.83;;
67248;SDS011;63247;54.300;18.592;2024-02-23T14:07:43;4.53;;;1.70;;
67248;SDS011;63247;54.300;18.592;2024-02-23T14:10:09;2.37;;;0.80;;
67248;SDS011;63247;54.300;18.592;2024-02-23T14:12:34;3.42;;;1.10;;
67248;SDS011;63247;54.300;18.592;2024-02-23T14:15:00;3.07;;;0.80;;